createdAt,value
2023-01-25T00:02:03.913Z,2.70
2023-01-25T00:04:32.648Z,2.70
2023-01-25T00:07:01.675Z,2.60
2023-01-25T00:09:30.884Z,2.60
2023-01-25T00:11:59.443Z,2.50
2023-01-25T00:14:27.866Z,2.50
2023-01-25T00:17:00.917Z,2.50
2023-01-25T00:19:29.466Z,2.40
2023-01-25T00:21:58.689Z,2.40
2023-01-25T00:24:28.511Z,2.40
2023-01-25T00:26:56.693Z,2.40
2023-01-25T00:29:28.366Z,2.40
2023-01-25T00:32:04.947Z,2.40
2023-01-25T00:34:46.840Z,2.40
2023-01-25T00:37:22.139Z,2.40
2023-01-25T00:39:53.954Z,2.40
2023-01-25T00:42:22.373Z,2.40
2023-01-25T00:44:52.096Z,2.40
2023-01-25T00:47:23.727Z,2.30
2023-01-25T00:49:52.829Z,2.20
2023-01-25T00:52:22.104Z,2.20
2023-01-25T00:54:51.870Z,2.20
2023-01-25T00:57:20.083Z,2.20
2023-01-25T00:59:48.217Z,2.10
2023-01-25T01:02:16.870Z,2.10
2023-01-25T01:04:46.428Z,2.10
2023-01-25T01:07:16.892Z,2.00
2023-01-25T01:09:48.192Z,2.00
2023-01-25T01:12:16.399Z,2.00
2023-01-25T01:14:44.920Z,1.90
2023-01-25T01:17:15.482Z,1.90
2023-01-25T01:19:43.851Z,1.90
2023-01-25T01:22:15.031Z,1.80
2023-01-25T01:24:43.415Z,1.80
2023-01-25T01:27:11.579Z,1.70
2023-01-25T01:29:39.894Z,1.70
2023-01-25T01:32:09.019Z,1.80
2023-01-25T01:34:37.874Z,1.80
2023-01-25T01:37:06.019Z,1.80
2023-01-25T01:39:35.896Z,1.80
2023-01-25T01:42:05.913Z,1.80
2023-01-25T01:44:46.712Z,1.70
2023-01-25T01:47:20.586Z,1.70
2023-01-25T01:49:55.706Z,1.60
2023-01-25T01:52:29.881Z,1.60
2023-01-25T01:55:04.986Z,1.60
2023-01-25T01:57:39.846Z,1.60
2023-01-25T02:00:13.748Z,1.50
2023-01-25T02:02:44.955Z,1.60
2023-01-25T02:05:19.404Z,1.70
2023-01-25T02:07:51.489Z,1.70
2023-01-25T02:10:24.886Z,1.70
2023-01-25T02:12:59.387Z,1.60
2023-01-25T02:15:30.856Z,1.60
2023-01-25T02:18:01.205Z,1.60
2023-01-25T02:20:37.721Z,1.50
2023-01-25T02:23:16.937Z,1.50
2023-01-25T02:25:47.055Z,1.50
2023-01-25T02:28:19.704Z,1.40
2023-01-25T02:30:50.712Z,1.40
2023-01-25T02:33:19.305Z,1.50
2023-01-25T02:36:23.265Z,1.50
2023-01-25T02:38:57.873Z,1.50
2023-01-25T02:41:35.425Z,1.50
2023-01-25T02:44:06.156Z,1.50
2023-01-25T02:46:37.754Z,1.50
2023-01-25T02:49:07.936Z,1.40
2023-01-25T02:51:39.912Z,1.30
2023-01-25T02:54:12.916Z,1.20
2023-01-25T02:56:43.290Z,1.20
2023-01-25T02:59:13.490Z,1.20
2023-01-25T03:01:49.921Z,1.30
2023-01-25T03:04:21.371Z,1.30
2023-01-25T03:06:50.546Z,1.40
2023-01-25T03:09:21.886Z,1.30
2023-01-25T03:11:53.731Z,1.30
2023-01-25T03:14:24.265Z,1.20
2023-01-25T03:16:55.110Z,1.20
2023-01-25T03:19:25.902Z,1.20
2023-01-25T03:21:54.117Z,1.10
2023-01-25T03:24:22.913Z,1.10
2023-01-25T03:27:14.572Z,1.10
2023-01-25T03:30:03.651Z,1.10
2023-01-25T03:32:34.763Z,1.10
2023-01-25T03:35:10.264Z,1.20
2023-01-25T03:37:38.731Z,1.20
2023-01-25T03:40:08.513Z,1.30
2023-01-25T03:42:48.894Z,1.20
2023-01-25T03:45:20.025Z,1.20
2023-01-25T03:47:51.879Z,1.10
2023-01-25T03:50:20.859Z,1.20
2023-01-25T03:52:54.732Z,1.20
2023-01-25T03:55:24.952Z,1.20
2023-01-25T03:57:54.929Z,1.20
2023-01-25T04:00:23.366Z,1.10
2023-01-25T04:03:02.299Z,1.10
2023-01-25T04:05:31.763Z,1.10
2023-01-25T04:08:00.598Z,1.20
2023-01-25T04:10:38.013Z,1.20
2023-01-25T04:13:08.945Z,1.20
2023-01-25T04:15:39.205Z,1.20
2023-01-25T04:18:15.919Z,1.20
2023-01-25T04:20:52.895Z,1.20
2023-01-25T04:23:23.128Z,1.20
2023-01-25T04:25:55.955Z,1.20
2023-01-25T04:28:26.471Z,1.20
2023-01-25T04:30:57.933Z,1.20
2023-01-25T04:33:30.738Z,1.10
2023-01-25T04:35:59.923Z,1.20
2023-01-25T04:38:30.751Z,1.10
2023-01-25T04:40:59.936Z,1.10
2023-01-25T04:43:32.762Z,1.10
2023-01-25T04:46:07.228Z,1.00
2023-01-25T04:48:39.605Z,1.00
2023-01-25T04:51:09.589Z,0.90
2023-01-25T04:53:39.823Z,0.90
2023-01-25T04:56:08.990Z,0.90
2023-01-25T04:58:47.758Z,0.90
2023-01-25T05:01:16.996Z,1.00
2023-01-25T05:03:45.273Z,1.00
2023-01-25T05:06:26.839Z,0.90
2023-01-25T05:08:59.066Z,0.90
2023-01-25T05:11:29.930Z,1.00
2023-01-25T05:14:12.995Z,1.00
2023-01-25T05:16:43.388Z,1.00
2023-01-25T05:19:13.543Z,0.90
2023-01-25T05:22:01.823Z,0.90
2023-01-25T05:24:41.675Z,0.90
2023-01-25T05:27:12.650Z,0.90
2023-01-25T05:30:13.603Z,0.90
2023-01-25T05:32:51.196Z,0.80
2023-01-25T05:35:19.492Z,0.90
2023-01-25T05:37:49.838Z,0.80
2023-01-25T05:40:23.385Z,0.90
2023-01-25T05:42:58.699Z,0.80
2023-01-25T05:45:31.184Z,0.80
2023-01-25T05:48:00.135Z,0.80
2023-01-25T05:50:28.949Z,0.70
2023-01-25T05:53:08.001Z,0.70
2023-01-25T05:55:37.127Z,0.70
2023-01-25T05:58:12.922Z,0.70
2023-01-25T06:00:42.772Z,0.60
2023-01-25T06:03:16.252Z,0.60
2023-01-25T06:05:46.790Z,0.60
2023-01-25T06:08:15.589Z,0.50
2023-01-25T06:10:50.663Z,0.50
2023-01-25T06:13:19.885Z,0.50
2023-01-25T06:15:54.635Z,0.50
2023-01-25T06:18:45.117Z,0.50
2023-01-25T06:21:37.017Z,0.50
2023-01-25T06:24:07.625Z,0.60
2023-01-25T06:26:35.899Z,0.60
2023-01-25T06:29:06.843Z,0.60
2023-01-25T06:31:36.930Z,0.60
2023-01-25T06:34:06.481Z,0.60
2023-01-25T06:36:35.030Z,0.60
2023-01-25T06:39:03.936Z,0.70
2023-01-25T06:41:32.116Z,0.60
2023-01-25T06:44:00.320Z,0.60
2023-01-25T06:46:30.422Z,0.60
2023-01-25T06:49:00.103Z,0.60
2023-01-25T06:51:28.418Z,0.60
2023-01-25T06:53:57.371Z,0.60
2023-01-25T06:56:26.693Z,0.60
2023-01-25T06:58:58.369Z,0.60
2023-01-25T07:01:30.308Z,0.60
2023-01-25T07:04:00.662Z,0.60
2023-01-25T07:06:34.205Z,0.60
2023-01-25T07:09:06.619Z,0.60
2023-01-25T07:11:36.331Z,0.70
2023-01-25T07:14:05.779Z,0.70
2023-01-25T07:16:42.276Z,0.60
2023-01-25T07:19:14.308Z,0.50
2023-01-25T07:21:50.084Z,0.50
2023-01-25T07:24:20.195Z,0.50
2023-01-25T07:26:50.861Z,0.50
2023-01-25T07:29:19.383Z,0.40
2023-01-25T07:31:47.845Z,0.50
2023-01-25T07:34:21.053Z,0.50
2023-01-25T07:36:49.302Z,0.60
2023-01-25T07:39:19.527Z,0.60
2023-01-25T07:41:47.834Z,0.50
2023-01-25T07:44:20.481Z,0.50
2023-01-25T07:46:52.839Z,0.50
2023-01-25T07:49:22.997Z,0.50
2023-01-25T07:51:55.345Z,0.50
2023-01-25T07:54:23.574Z,0.50
2023-01-25T07:56:55.388Z,0.50
2023-01-25T07:59:23.526Z,0.40
2023-01-25T08:01:53.497Z,0.40
2023-01-25T08:04:23.038Z,0.30
2023-01-25T08:06:51.186Z,0.40
2023-01-25T08:09:23.597Z,0.40
2023-01-25T08:11:53.568Z,0.40
2023-01-25T08:14:21.933Z,0.40
2023-01-25T08:16:52.363Z,0.40
2023-01-25T08:19:22.565Z,0.40
2023-01-25T08:21:50.848Z,0.50
2023-01-25T08:24:20.905Z,0.50
2023-01-25T08:26:49.304Z,0.60
2023-01-25T08:29:22.288Z,0.50
2023-01-25T08:31:50.539Z,0.60
2023-01-25T08:34:19.149Z,0.50
2023-01-25T08:39:27.666Z,0.40
2023-01-25T08:41:56.831Z,0.50
2023-01-25T08:44:26.075Z,0.40
2023-01-25T08:46:57.959Z,0.30
2023-01-25T08:49:27.679Z,0.30
2023-01-25T08:51:58.614Z,0.40
2023-01-25T08:54:26.858Z,0.40
2023-01-25T08:56:55.140Z,0.40
2023-01-25T08:59:25.355Z,0.40
2023-01-25T09:01:53.584Z,0.50
2023-01-25T09:04:28.319Z,0.50
2023-01-25T09:07:00.400Z,0.50
2023-01-25T09:09:31.664Z,0.50
2023-01-25T09:11:59.848Z,0.40
2023-01-25T09:14:28.009Z,0.40
2023-01-25T09:16:56.255Z,0.40
2023-01-25T09:19:24.822Z,0.40
2023-01-25T09:21:52.937Z,0.50
2023-01-25T09:24:22.620Z,0.50
2023-01-25T09:26:59.447Z,0.60
2023-01-25T09:29:30.196Z,0.60
2023-01-25T09:31:58.552Z,0.50
2023-01-25T09:34:37.472Z,0.40
2023-01-25T09:37:05.629Z,0.40
2023-01-25T09:39:37.071Z,0.30
2023-01-25T09:42:30.242Z,0.40
2023-01-25T09:45:23.633Z,0.40
2023-01-25T09:47:59.802Z,0.40
2023-01-25T09:50:37.171Z,0.40
2023-01-25T09:53:40.796Z,0.40
2023-01-25T09:56:16.941Z,0.40
2023-01-25T09:58:49.092Z,0.40
2023-01-25T10:01:37.640Z,0.40
2023-01-25T10:04:15.017Z,0.40
2023-01-25T10:06:55.194Z,0.40
2023-01-25T10:09:39.169Z,0.50
2023-01-25T10:12:17.147Z,0.50
2023-01-25T10:14:46.906Z,0.40
2023-01-25T10:17:22.002Z,0.40
2023-01-25T10:20:13.947Z,0.50
2023-01-25T10:22:47.788Z,0.50
2023-01-25T10:25:28.717Z,0.50
2023-01-25T10:28:20.485Z,0.60
2023-01-25T10:30:56.431Z,0.70
2023-01-25T10:33:25.134Z,0.70
2023-01-25T10:35:54.041Z,0.70
2023-01-25T10:38:27.962Z,0.80
2023-01-25T10:41:02.960Z,0.70
2023-01-25T10:43:35.937Z,0.70
2023-01-25T10:46:05.080Z,0.70
2023-01-25T10:48:36.609Z,0.60
2023-01-25T10:51:06.200Z,0.60
2023-01-25T10:53:35.678Z,0.60
2023-01-25T10:56:17.122Z,0.60
2023-01-25T10:58:51.162Z,0.70
2023-01-25T11:01:32.139Z,0.70
2023-01-25T11:04:01.650Z,0.80
2023-01-25T11:06:32.980Z,0.80
2023-01-25T11:09:03.541Z,0.80
2023-01-25T11:11:38.984Z,0.80
2023-01-25T11:14:18.690Z,0.70
2023-01-25T11:16:50.717Z,0.70
2023-01-25T11:19:32.521Z,0.60
2023-01-25T11:22:02.249Z,0.50
2023-01-25T11:24:31.480Z,0.60
2023-01-25T11:27:24.022Z,0.70
2023-01-25T11:30:13.080Z,0.60
2023-01-25T11:32:42.940Z,0.60
2023-01-25T11:35:17.013Z,0.70
2023-01-25T11:38:04.798Z,0.70
2023-01-25T11:40:39.463Z,0.70
2023-01-25T11:43:30.474Z,0.80
2023-01-25T11:46:20.883Z,0.80
2023-01-25T11:49:12.694Z,0.70
2023-01-25T11:51:51.513Z,0.70
2023-01-25T11:54:44.333Z,0.80
2023-01-25T11:57:30.900Z,0.80
2023-01-25T12:00:23.794Z,0.80
2023-01-25T12:03:25.386Z,0.80
2023-01-25T12:06:01.944Z,0.70
2023-01-25T12:08:46.038Z,0.70
2023-01-25T12:11:25.390Z,0.60
2023-01-25T12:14:06.105Z,0.60
2023-01-25T12:16:48.618Z,0.50
2023-01-25T12:19:40.422Z,0.40
2023-01-25T12:22:47.307Z,0.50
2023-01-25T12:25:26.024Z,0.50
2023-01-25T12:28:10.647Z,0.40
2023-01-25T12:30:50.962Z,0.50
2023-01-25T12:33:24.021Z,0.50
2023-01-25T12:35:59.075Z,0.60
2023-01-25T12:38:33.873Z,0.60
2023-01-25T12:41:08.923Z,0.60
2023-01-25T12:43:43.126Z,0.60
2023-01-25T12:46:17.491Z,0.70
2023-01-25T12:48:51.115Z,0.60
2023-01-25T12:51:22.231Z,0.60
2023-01-25T12:53:54.179Z,0.70
2023-01-25T12:56:34.070Z,0.70
2023-01-25T12:59:10.582Z,0.80
2023-01-25T13:01:49.122Z,0.80
2023-01-25T13:04:42.084Z,0.80
2023-01-25T13:07:20.383Z,0.70
2023-01-25T13:10:02.314Z,0.70
2023-01-25T13:12:31.063Z,0.70
2023-01-25T13:15:00.058Z,0.70
2023-01-25T13:17:36.695Z,0.70
2023-01-25T13:20:45.079Z,0.60
2023-01-25T13:23:32.672Z,0.70
2023-01-25T13:26:38.000Z,0.60
2023-01-25T13:29:54.661Z,0.60
2023-01-25T13:33:03.573Z,0.70
2023-01-25T13:35:38.366Z,0.70
2023-01-25T13:38:33.906Z,0.70
2023-01-25T13:41:20.114Z,0.70
2023-01-25T13:43:52.084Z,0.90
2023-01-25T13:46:26.123Z,0.80
2023-01-25T13:48:59.798Z,0.80
2023-01-25T13:51:31.467Z,0.80
2023-01-25T13:54:03.541Z,0.80
2023-01-25T13:56:36.014Z,0.80
2023-01-25T13:59:04.386Z,0.80
2023-01-25T14:01:36.785Z,0.80
2023-01-25T14:04:06.582Z,0.80
2023-01-25T14:06:38.381Z,0.70
2023-01-25T14:09:16.990Z,0.70
2023-01-25T14:11:51.583Z,0.60
2023-01-25T14:14:25.973Z,0.60
2023-01-25T14:17:13.111Z,0.60
2023-01-25T14:19:44.534Z,0.70
2023-01-25T14:22:31.258Z,0.70
2023-01-25T14:25:05.910Z,0.70
2023-01-25T14:27:35.974Z,0.70
2023-01-25T14:30:05.773Z,0.70
2023-01-25T14:32:37.909Z,0.70
2023-01-25T14:35:43.581Z,0.70
2023-01-25T14:38:28.225Z,0.80
2023-01-25T14:40:59.460Z,0.80
2023-01-25T14:43:30.143Z,0.80
2023-01-25T14:45:58.457Z,0.80
2023-01-25T14:48:40.807Z,0.80
2023-01-25T14:51:17.106Z,0.80
2023-01-25T14:53:49.285Z,0.80
2023-01-25T14:56:35.829Z,0.80
2023-01-25T14:59:06.361Z,0.80
2023-01-25T15:01:39.430Z,0.80
2023-01-25T15:04:14.871Z,0.80
2023-01-25T15:06:52.230Z,0.80
2023-01-25T15:09:35.555Z,0.90
2023-01-25T15:12:05.815Z,0.80
2023-01-25T15:14:34.329Z,0.80
2023-01-25T15:17:02.473Z,0.80
2023-01-25T15:19:35.745Z,0.80
2023-01-25T15:22:06.171Z,0.70
2023-01-25T15:24:34.581Z,0.70
2023-01-25T15:27:03.391Z,0.80
2023-01-25T15:29:35.581Z,0.80
2023-01-25T15:32:03.840Z,0.80
2023-01-25T15:34:33.536Z,0.80
2023-01-25T15:37:03.038Z,0.90
2023-01-25T15:39:32.706Z,0.90
2023-01-25T15:42:03.348Z,0.90
2023-01-25T15:44:31.632Z,0.90
2023-01-25T15:46:59.833Z,0.90
2023-01-25T15:49:31.003Z,0.90
2023-01-25T15:51:59.463Z,0.80
2023-01-25T15:54:32.793Z,0.90
2023-01-25T15:57:01.745Z,0.90
2023-01-25T15:59:30.241Z,0.90
2023-01-25T16:01:58.499Z,0.90
2023-01-25T16:04:27.118Z,0.90
2023-01-25T16:06:55.968Z,0.80
2023-01-25T16:09:26.828Z,0.90
2023-01-25T16:11:59.169Z,0.80
2023-01-25T16:14:30.201Z,0.80
2023-01-25T16:17:02.624Z,0.90
2023-01-25T16:19:31.135Z,0.90
2023-01-25T16:21:59.348Z,0.80
2023-01-25T16:24:27.693Z,0.80
2023-01-25T16:26:59.057Z,0.70
2023-01-25T16:29:30.437Z,0.70
2023-01-25T16:31:58.970Z,0.80
2023-01-25T16:34:27.314Z,0.90
2023-01-25T16:36:57.611Z,0.90
2023-01-25T16:39:28.334Z,1.00
2023-01-25T16:41:57.936Z,0.90
2023-01-25T16:44:27.141Z,0.90
2023-01-25T16:46:55.605Z,0.90
2023-01-25T16:49:26.709Z,0.90
2023-01-25T16:51:58.973Z,0.90
2023-01-25T16:54:28.762Z,0.90
2023-01-25T16:56:59.954Z,0.80
2023-01-25T16:59:30.312Z,0.70
2023-01-25T17:02:01.371Z,0.70
2023-01-25T17:04:31.126Z,0.80
2023-01-25T17:06:59.919Z,0.70
2023-01-25T17:09:29.749Z,0.70
2023-01-25T17:11:59.298Z,0.70
2023-01-25T17:14:29.863Z,0.60
2023-01-25T17:16:57.985Z,0.60
2023-01-25T17:19:27.193Z,0.70
2023-01-25T17:21:57.448Z,0.70
2023-01-25T17:24:30.381Z,0.70
2023-01-25T17:27:01.396Z,0.70
2023-01-25T17:29:31.029Z,0.80
2023-01-25T17:31:59.705Z,0.80
2023-01-25T17:34:30.469Z,0.90
2023-01-25T17:36:59.053Z,0.90
2023-01-25T17:39:28.157Z,0.80
2023-01-25T17:41:56.285Z,0.80
2023-01-25T17:44:26.695Z,0.80
2023-01-25T17:46:58.975Z,0.80
2023-01-25T17:49:29.456Z,0.80
2023-01-25T17:51:57.681Z,0.80
2023-01-25T17:54:26.155Z,0.90
2023-01-25T17:56:59.429Z,0.80
2023-01-25T17:59:29.260Z,0.80
2023-01-25T18:01:57.919Z,0.80
2023-01-25T18:04:26.385Z,0.80
2023-01-25T18:06:54.589Z,0.70
2023-01-25T18:09:23.810Z,0.60
2023-01-25T18:11:54.461Z,0.70
2023-01-25T18:14:25.762Z,0.60
2023-01-25T18:16:55.249Z,0.70
2023-01-25T18:19:24.144Z,0.70
2023-01-25T18:21:52.250Z,0.80
2023-01-25T18:24:34.085Z,0.80
2023-01-25T18:27:05.767Z,0.90
2023-01-25T18:29:45.508Z,0.80
2023-01-25T18:32:16.096Z,0.80
2023-01-25T18:34:44.628Z,0.70
2023-01-25T18:37:21.892Z,0.80
2023-01-25T18:39:51.819Z,0.80
2023-01-25T18:42:21.101Z,0.80
2023-01-25T18:44:49.365Z,0.80
2023-01-25T18:47:20.138Z,0.80
2023-01-25T18:49:49.292Z,0.70
2023-01-25T18:52:18.423Z,0.70
2023-01-25T18:54:49.818Z,0.70
2023-01-25T18:57:18.275Z,0.70
2023-01-25T18:59:46.707Z,0.80
2023-01-25T19:02:16.385Z,0.80
2023-01-25T19:04:47.185Z,0.80
2023-01-25T19:07:15.639Z,0.80
2023-01-25T19:09:44.577Z,0.90
2023-01-25T19:12:13.076Z,0.90
2023-01-25T19:14:44.338Z,0.90
2023-01-25T19:17:12.577Z,0.90
2023-01-25T19:19:45.347Z,1.00
2023-01-25T19:22:14.949Z,1.00
2023-01-25T19:24:43.227Z,1.00
2023-01-25T19:27:11.360Z,1.00
2023-01-25T19:29:40.254Z,1.00
2023-01-25T19:32:10.816Z,1.10
2023-01-25T19:34:39.138Z,1.10
2023-01-25T19:37:07.293Z,1.10
2023-01-25T19:39:37.156Z,1.10
2023-01-25T19:42:06.836Z,1.10
2023-01-25T19:44:35.070Z,1.10
2023-01-25T19:47:04.038Z,1.10
2023-01-25T19:49:32.155Z,1.00
2023-01-25T19:52:00.298Z,1.00
2023-01-25T19:54:28.641Z,1.00
2023-01-25T19:56:58.591Z,1.00
2023-01-25T19:59:29.086Z,1.00
2023-01-25T20:01:57.867Z,1.00
2023-01-25T20:04:29.866Z,1.00
2023-01-25T20:06:58.082Z,1.00
2023-01-25T20:09:28.657Z,1.00
2023-01-25T20:12:00.643Z,1.00
2023-01-25T20:14:28.904Z,1.00
2023-01-25T20:16:58.435Z,1.00
2023-01-25T20:19:26.581Z,1.00
2023-01-25T20:21:54.772Z,1.00
2023-01-25T20:24:24.530Z,1.10
2023-01-25T20:26:52.696Z,1.10
2023-01-25T20:29:25.853Z,1.10
2023-01-25T20:31:54.279Z,1.10
2023-01-25T20:34:24.215Z,1.00
2023-01-25T20:36:52.788Z,1.10
2023-01-25T20:39:22.726Z,1.10
2023-01-25T20:41:54.911Z,1.10
2023-01-25T20:44:29.881Z,1.10
2023-01-25T20:46:58.236Z,1.10
2023-01-25T20:49:31.798Z,1.00
2023-01-25T20:52:00.124Z,1.00
2023-01-25T20:54:28.338Z,1.10
2023-01-25T20:56:58.029Z,1.10
2023-01-25T20:59:31.141Z,1.10
2023-01-25T21:02:03.082Z,1.10
2023-01-25T21:04:31.394Z,1.10
2023-01-25T21:06:59.649Z,1.10
2023-01-25T21:09:28.309Z,1.10
2023-01-25T21:14:50.210Z,1.10
2023-01-25T21:17:23.060Z,1.20
2023-01-25T21:19:51.339Z,1.20
2023-01-25T21:22:20.115Z,1.10
2023-01-25T21:24:48.399Z,1.10
2023-01-25T21:27:16.753Z,1.10
2023-01-25T21:29:45.278Z,1.20
2023-01-25T21:32:14.753Z,1.30
2023-01-25T21:34:49.589Z,1.30
2023-01-25T21:37:18.315Z,1.20
2023-01-25T21:39:46.609Z,1.20
2023-01-25T21:42:14.773Z,1.20
2023-01-25T21:45:05.411Z,1.20
2023-01-25T21:47:34.919Z,1.20
2023-01-25T21:50:20.870Z,1.20
2023-01-25T21:52:49.139Z,1.30
2023-01-25T21:55:17.903Z,1.30
2023-01-25T21:57:50.117Z,1.30
2023-01-25T22:00:20.574Z,1.30
2023-01-25T22:02:53.578Z,1.30
2023-01-25T22:05:21.945Z,1.30
2023-01-25T22:07:50.091Z,1.30
2023-01-25T22:10:19.151Z,1.30
2023-01-25T22:12:50.673Z,1.30
2023-01-25T22:15:20.210Z,1.30
2023-01-25T22:17:48.430Z,1.30
2023-01-25T22:20:21.378Z,1.30
2023-01-25T22:22:50.078Z,1.30
2023-01-25T22:25:18.355Z,1.30
2023-01-25T22:27:55.066Z,1.30
2023-01-25T22:30:24.227Z,1.30
2023-01-25T22:32:56.223Z,1.30
2023-01-25T22:35:25.904Z,1.30
2023-01-25T22:37:54.066Z,1.30
2023-01-25T22:40:22.306Z,1.40
2023-01-25T22:42:50.394Z,1.40
2023-01-25T22:45:19.065Z,1.40
2023-01-25T22:47:48.099Z,1.40
2023-01-25T22:50:21.277Z,1.40
2023-01-25T22:52:50.852Z,1.40
2023-01-25T22:55:19.142Z,1.40
2023-01-25T22:57:48.057Z,1.40
2023-01-25T23:00:17.067Z,1.50
2023-01-25T23:02:49.439Z,1.50
2023-01-25T23:05:18.215Z,1.40
2023-01-25T23:07:46.345Z,1.40
2023-01-25T23:10:17.895Z,1.40
2023-01-25T23:12:46.088Z,1.40
2023-01-25T23:15:16.367Z,1.40
2023-01-25T23:18:03.071Z,1.40
2023-01-25T23:20:31.490Z,1.40
2023-01-25T23:22:59.621Z,1.40
2023-01-25T23:25:30.495Z,1.40
2023-01-25T23:28:00.291Z,1.40
2023-01-25T23:30:28.565Z,1.40
2023-01-25T23:32:56.905Z,1.40
2023-01-25T23:35:25.191Z,1.50
2023-01-25T23:37:53.364Z,1.50
2023-01-25T23:40:21.638Z,1.50
2023-01-25T23:42:52.071Z,1.50
2023-01-25T23:45:22.850Z,1.40
2023-01-25T23:47:51.001Z,1.40
2023-01-25T23:50:20.227Z,1.50
2023-01-25T23:52:48.350Z,1.50
2023-01-25T23:55:17.196Z,1.60
2023-01-25T23:57:45.273Z,1.60
